Time;durP1;ratioP1;P1;durP2;ratioP2;P2;SDS_P1;SDS_P2;PMS_P1;PMS_P2;Temp;Humidity;BMP_temperature;BMP_pressure;BME280_temperature;BME280_humidity;BME280_pressure;Samples;Min_cycle;Max_cycle;Signal;HPM_P1;HPM_P2
2023/09/01 00:01:41;;;;;;;7.10;6.00;;;;;;;-143.84;76.29;45108.09;5133653;27;20430;-61
2023/09/01 00:04:09;;;;;;;10.50;6.97;;;;;;;-143.84;75.51;45102.38;5133285;27;20438;-61
2023/09/01 00:06:36;;;;;;;13.03;7.10;;;;;;;-143.84;76.23;45092.88;5133429;27;20426;-62
2023/09/01 00:09:04;;;;;;;8.10;6.80;;;;;;;-143.84;77.70;45113.81;5133068;27;20470;-61
2023/09/01 00:11:31;;;;;;;6.77;6.17;;;;;;;-143.84;78.66;45085.25;5133020;27;20475;-61
2023/09/01 00:14:00;;;;;;;7.23;6.50;;;;;;;-143.84;78.77;45121.44;5133067;27;20434;-61
2023/09/01 00:16:28;;;;;;;7.20;6.03;;;;;;;-143.84;77.89;45090.97;5133116;27;20441;-61
2023/09/01 00:18:56;;;;;;;7.07;6.27;;;;;;;-143.84;76.55;45119.53;5133412;27;20426;-61
2023/09/01 00:21:23;;;;;;;6.03;5.43;;;;;;;-143.84;75.81;45090.97;5132786;27;20446;-62
2023/09/01 00:23:50;;;;;;;5.20;4.60;;;;;;;-143.84;75.73;45098.56;5132845;27;20434;-61
2023/09/01 00:26:18;;;;;;;7.20;5.73;;;;;;;-143.84;75.75;45108.09;5132641;27;20470;-62
2023/09/01 00:28:45;;;;;;;7.77;5.97;;;;;;;-143.84;75.34;45113.81;5132128;27;20438;-62
2023/09/01 00:31:12;;;;;;;6.50;5.03;;;;;;;-143.84;75.41;45108.09;5132610;27;20433;-61
2023/09/01 00:33:39;;;;;;;7.60;5.57;;;;;;;-143.84;75.55;45127.13;5132582;27;20438;-62
2023/09/01 00:36:08;;;;;;;7.83;5.70;;;;;;;-143.84;75.23;45077.63;5132713;27;20490;-61
2023/09/01 00:38:35;;;;;;;8.63;5.07;;;;;;;-143.84;73.78;45073.81;5132221;27;20495;-61
2023/09/01 00:41:02;;;;;;;8.70;5.10;;;;;;;-143.84;73.12;45100.47;5132228;27;20430;-61
2023/09/01 00:43:29;;;;;;;5.77;4.60;;;;;;;-143.84;72.77;45094.78;5132476;27;20438;-61
2023/09/01 00:45:57;;;;;;;11.53;5.30;;;;;;;-143.84;72.72;45085.25;5132398;27;20487;-61
2023/09/01 00:48:24;;;;;;;9.83;4.80;;;;;;;-143.84;72.26;45092.88;5132078;27;20444;-61
2023/09/01 00:50:52;;;;;;;6.17;5.57;;;;;;;-143.84;72.01;45085.25;5132346;27;20880;-62
2023/09/01 00:53:20;;;;;;;10.50;5.20;;;;;;;-143.84;72.61;45089.06;5132158;27;20924;-61
2023/09/01 00:55:48;;;;;;;7.53;5.77;;;;;;;-143.84;73.11;45087.16;5132935;27;20438;-61
2023/09/01 00:58:16;;;;;;;7.77;4.90;;;;;;;-143.84;73.27;45106.19;5132328;27;20437;-62
2023/09/01 01:00:43;;;;;;;8.83;5.30;;;;;;;-143.84;73.45;45098.56;5132546;27;20441;-62
2023/09/01 01:03:11;;;;;;;7.27;5.17;;;;;;;-143.84;73.41;45087.16;5132525;27;20426;-61
2023/09/01 01:05:49;;;;;;;6.07;4.90;;;;;;;-143.84;73.43;45117.63;5132288;27;20483;-61
2023/09/01 01:08:39;;;;;;;7.90;5.87;;;;;;;-143.84;74.27;45087.16;5131872;27;20438;-61
2023/09/01 01:11:25;;;;;;;6.23;5.23;;;;;;;-143.84;74.84;45077.63;5131878;27;20477;-61
2023/09/01 01:13:59;;;;;;;13.83;5.10;;;;;;;-143.84;75.06;45111.91;5131717;27;20438;-61
2023/09/01 01:16:28;;;;;;;5.93;4.63;;;;;;;-143.84;75.81;45047.16;5131337;27;20509;-61
2023/09/01 01:18:56;;;;;;;8.80;5.33;;;;;;;-143.84;75.81;45083.34;5131877;27;20509;-61
2023/09/01 01:21:28;;;;;;;5.90;5.40;;;;;;;-143.84;75.89;45081.44;5131626;27;20442;-61
2023/09/01 01:23:56;;;;;;;8.10;5.40;;;;;;;-143.84;75.43;45121.44;5131881;27;20450;-61
2023/09/01 01:26:24;;;;;;;9.93;5.43;;;;;;;-143.84;75.20;45070.00;5131466;27;20485;-61
2023/09/01 01:28:51;;;;;;;9.23;5.70;;;;;;;-143.84;75.01;45098.56;5131684;27;20494;-61
2023/09/01 01:31:19;;;;;;;8.27;5.03;;;;;;;-143.84;74.63;45096.66;5131841;27;20481;-61
2023/09/01 01:33:53;;;;;;;11.33;6.23;;;;;;;-143.84;75.05;45092.88;5131747;27;20500;-61
2023/09/01 01:36:30;;;;;;;6.23;5.60;;;;;;;-143.84;75.42;45110.00;5131460;27;20935;-61
2023/09/01 01:39:04;;;;;;;6.77;6.00;;;;;;;-143.84;75.72;45108.09;5131665;27;20916;-61
2023/09/01 01:41:38;;;;;;;7.13;5.60;;;;;;;-143.84;76.06;45077.63;5131518;27;20452;-61
2023/09/01 01:44:08;;;;;;;6.00;4.83;;;;;;;-143.84;76.36;45066.22;5131151;27;20521;-61
2023/09/01 01:46:36;;;;;;;6.07;4.63;;;;;;;-143.84;76.55;45102.38;5131088;27;20495;-61
2023/09/01 01:49:09;;;;;;;7.20;5.50;;;;;;;-143.84;76.86;45094.78;5131435;27;20427;-61
2023/09/01 01:51:36;;;;;;;7.10;5.33;;;;;;;-143.84;77.47;45121.44;5131139;27;20487;-61
2023/09/01 01:54:05;;;;;;;6.30;4.47;;;;;;;-143.84;77.18;45094.78;5131361;27;20438;-61
2023/09/01 01:56:32;;;;;;;8.70;5.40;;;;;;;-143.84;77.19;45113.81;5131663;27;20431;-61
2023/09/01 01:59:00;;;;;;;8.10;5.20;;;;;;;-143.84;77.80;45113.81;5131506;27;20430;-61
2023/09/01 02:01:27;;;;;;;6.43;5.30;;;;;;;-143.84;78.71;45090.97;5131282;27;20442;-61
2023/09/01 02:03:54;;;;;;;5.30;4.43;;;;;;;-143.84;78.44;45108.09;5131024;27;20434;-61
2023/09/01 02:06:21;;;;;;;10.63;5.37;;;;;;;-143.84;78.80;45113.81;5131183;27;20472;-61
2023/09/01 02:08:48;;;;;;;9.33;5.43;;;;;;;-143.84;79.73;45110.00;5131280;27;20434;-61
2023/09/01 02:11:17;;;;;;;6.50;5.40;;;;;;;-143.84;80.29;45117.63;5130338;27;20885;-61
2023/09/01 02:13:44;;;;;;;5.33;4.80;;;;;;;-143.84;80.89;45092.88;5130933;27;20482;-61
2023/09/01 02:16:11;;;;;;;10.90;4.80;;;;;;;-143.84;81.25;45108.09;5131166;27;20430;-61
2023/09/01 02:18:38;;;;;;;7.30;5.70;;;;;;;-143.84;81.13;45094.78;5130801;27;20443;-61
2023/09/01 02:21:05;;;;;;;8.67;5.27;;;;;;;-143.84;80.74;45102.38;5130347;27;20426;-61
2023/09/01 02:23:33;;;;;;;10.10;6.40;;;;;;;-143.84;80.26;45064.31;5130427;27;20537;-61
2023/09/01 02:26:00;;;;;;;4.90;4.50;;;;;;;-143.84;78.92;45121.44;5130390;27;20967;-61
2023/09/01 02:28:28;;;;;;;13.63;4.77;;;;;;;-143.84;78.46;45096.66;5130362;27;20425;-61
2023/09/01 02:30:55;;;;;;;5.63;5.07;;;;;;;-143.84;77.23;45121.44;5130016;27;20515;-61
2023/09/01 02:33:22;;;;;;;5.50;4.80;;;;;;;-143.84;76.24;45083.34;5130155;27;20486;-60
2023/09/01 02:35:49;;;;;;;10.80;5.97;;;;;;;-143.84;75.38;45087.16;5130840;27;20425;-61
2023/09/01 02:38:16;;;;;;;8.63;4.60;;;;;;;-143.84;75.22;45110.00;5130664;27;20445;-61
2023/09/01 02:40:44;;;;;;;8.43;5.33;;;;;;;-143.84;75.41;45115.72;5130547;27;20445;-61
2023/09/01 02:43:11;;;;;;;9.50;5.13;;;;;;;-143.84;74.72;45111.91;5112529;27;20438;-61
2023/09/01 02:45:40;;;;;;;7.50;5.60;;;;;;;-143.84;74.95;45108.09;5110394;28;20427;-61
2023/09/01 02:48:07;;;;;;;5.80;5.00;;;;;;;-143.84;74.44;45094.78;5110110;28;20439;-61
2023/09/01 02:50:34;;;;;;;6.10;4.80;;;;;;;-143.84;73.80;45081.44;5110834;28;20540;-61
2023/09/01 02:53:01;;;;;;;9.47;5.03;;;;;;;-143.84;73.50;45100.47;5114199;28;20427;-61
2023/09/01 02:55:31;;;;;;;7.03;4.97;;;;;;;-143.84;73.19;45094.78;5114198;28;20439;-61
2023/09/01 02:57:59;;;;;;;13.00;5.10;;;;;;;-143.84;72.98;45089.06;5114406;28;20895;-61
2023/09/01 03:00:28;;;;;;;11.23;5.20;;;;;;;-143.84;72.95;45136.66;5113832;28;20491;-61
2023/09/01 03:02:56;;;;;;;8.10;5.10;;;;;;;-143.84;72.55;45100.47;5113656;27;20466;-61
2023/09/01 03:05:25;;;;;;;6.10;5.00;;;;;;;-143.84;72.31;45117.63;5114056;28;20435;-61
2023/09/01 03:07:52;;;;;;;7.10;5.20;;;;;;;-143.84;71.36;45119.53;5113549;28;20517;-61
2023/09/01 03:10:19;;;;;;;4.97;4.50;;;;;;;-143.84;71.23;45089.06;5113532;27;20489;-61
2023/09/01 03:12:48;;;;;;;8.23;5.17;;;;;;;-143.84;71.20;45115.72;5114184;27;20423;-61
2023/09/01 03:15:15;;;;;;;5.63;5.13;;;;;;;-143.84;70.64;45113.81;5113673;27;20512;-61
2023/09/01 03:17:42;;;;;;;11.87;5.23;;;;;;;-143.84;70.73;45102.38;5113046;28;21215;-61
2023/09/01 03:20:12;;;;;;;7.00;4.80;;;;;;;-143.84;70.58;45083.34;5112921;28;20551;-61
2023/09/01 03:22:39;;;;;;;6.80;4.43;;;;;;;-143.84;70.56;45094.78;5113179;28;20538;-61
2023/09/01 03:25:09;;;;;;;7.97;5.23;;;;;;;-143.84;70.42;45108.09;5113531;28;20946;-61
2023/09/01 03:27:37;;;;;;;4.57;4.17;;;;;;;-143.84;70.60;45094.78;5119307;27;20442;-61
2023/09/01 03:30:04;;;;;;;6.30;4.20;;;;;;;-143.84;70.60;45104.28;5133662;27;20485;-61
2023/09/01 03:32:31;;;;;;;5.33;4.60;;;;;;;-143.84;70.45;45104.28;5133458;27;20441;-61
2023/09/01 03:34:59;;;;;;;9.30;4.97;;;;;;;-143.84;71.10;45085.25;5115178;27;20446;-59
2023/09/01 03:37:27;;;;;;;10.83;5.50;;;;;;;-143.84;71.04;45092.88;5130673;27;20847;-60
2023/09/01 03:39:54;;;;;;;12.33;4.87;;;;;;;-143.84;70.66;45108.09;5130750;27;20434;-60
2023/09/01 03:42:21;;;;;;;8.20;5.30;;;;;;;-143.84;70.95;45087.16;5130599;27;20442;-60
2023/09/01 03:44:49;;;;;;;5.00;4.60;;;;;;;-143.84;70.97;45087.16;5130307;27;20659;-60
2023/09/01 03:47:16;;;;;;;8.70;4.47;;;;;;;-143.84;70.61;45089.06;5126706;27;20446;-60
2023/09/01 03:49:43;;;;;;;7.90;4.80;;;;;;;-143.84;70.19;45096.66;5131538;27;20438;-60
2023/09/01 03:52:10;;;;;;;5.17;4.67;;;;;;;-143.84;70.08;45089.06;5132199;27;20426;-60
2023/09/01 03:54:39;;;;;;;5.40;4.90;;;;;;;-143.84;69.97;45108.09;5130136;27;20447;-60
2023/09/01 03:57:08;;;;;;;5.30;4.80;;;;;;;-143.84;70.18;45090.97;5111068;28;20446;-60
2023/09/01 03:59:35;;;;;;;5.53;4.90;;;;;;;-143.84;69.89;45094.78;5111040;27;20435;-60
2023/09/01 04:02:02;;;;;;;4.67;4.20;;;;;;;-143.84;70.25;45087.16;5130156;27;20437;-60
2023/09/01 04:04:31;;;;;;;6.80;4.60;;;;;;;-143.84;70.11;45121.44;5131477;27;20487;-60
2023/09/01 04:06:58;;;;;;;5.30;4.80;;;;;;;-143.84;70.34;45119.53;5131427;27;20430;-60
2023/09/01 04:09:25;;;;;;;7.90;4.33;;;;;;;-143.84;70.56;45083.34;5131389;27;20430;-60
2023/09/01 04:11:56;;;;;;;6.67;5.07;;;;;;;-143.84;71.10;45111.91;5131358;27;20470;-60
2023/09/01 04:14:23;;;;;;;5.17;4.70;;;;;;;-143.84;70.92;45098.56;5131197;27;20442;-60
2023/09/01 04:16:50;;;;;;;7.27;4.90;;;;;;;-143.84;71.29;45127.13;5131416;27;20917;-60
2023/09/01 04:19:17;;;;;;;7.17;4.27;;;;;;;-143.84;71.43;45123.34;5131039;27;20463;-60
2023/09/01 04:21:45;;;;;;;8.53;4.60;;;;;;;-143.84;71.38;45094.78;5131065;27;20438;-60
2023/09/01 04:24:12;;;;;;;4.57;4.13;;;;;;;-143.84;71.23;45087.16;5131126;27;20442;-60
2023/09/01 04:26:39;;;;;;;7.37;5.20;;;;;;;-143.84;71.51;45115.72;5131234;27;21468;-60
2023/09/01 04:29:08;;;;;;;5.30;4.80;;;;;;;-143.84;71.25;45098.56;5131124;27;20438;-60
2023/09/01 04:31:35;;;;;;;7.10;5.23;;;;;;;-143.84;71.50;45115.72;5132294;27;20856;-60
2023/09/01 04:34:03;;;;;;;8.80;5.00;;;;;;;-143.84;71.68;45089.06;5132700;27;20434;-61
2023/09/01 04:36:30;;;;;;;5.10;4.47;;;;;;;-143.84;71.76;45092.88;5132699;27;20529;-61
2023/09/01 04:38:58;;;;;;;5.60;4.60;;;;;;;-143.84;71.68;45066.22;5132696;27;20492;-61
2023/09/01 04:41:25;;;;;;;10.20;4.87;;;;;;;-143.84;72.11;45115.72;5132505;27;20848;-61
2023/09/01 04:43:52;;;;;;;8.73;5.07;;;;;;;-143.84;72.04;45092.88;5132668;27;20919;-61
2023/09/01 04:46:21;;;;;;;12.33;5.00;;;;;;;-143.84;72.44;45130.94;5132925;27;20423;-61
2023/09/01 04:48:48;;;;;;;4.70;4.23;;;;;;;-143.84;72.53;45092.88;5132458;27;20498;-61
2023/09/01 04:51:15;;;;;;;8.17;5.03;;;;;;;-143.84;71.71;45125.22;5132274;27;20473;-61
2023/09/01 04:53:42;;;;;;;5.73;4.80;;;;;;;-143.84;72.25;45104.28;5132564;27;20430;-61
2023/09/01 04:56:10;;;;;;;8.90;3.97;;;;;;;-143.84;71.65;45102.38;5132503;27;20431;-61
2023/09/01 04:58:37;;;;;;;4.90;4.40;;;;;;;-143.84;70.91;45113.81;5132182;27;20470;-61
2023/09/01 05:01:04;;;;;;;5.40;4.50;;;;;;;-143.84;70.16;45090.97;5132087;27;20939;-61
2023/09/01 05:03:33;;;;;;;5.10;4.53;;;;;;;-143.84;69.46;45102.38;5132072;27;20438;-61
2023/09/01 05:06:01;;;;;;;9.00;4.93;;;;;;;-143.84;68.66;45100.47;5132408;27;20449;-61
2023/09/01 05:08:28;;;;;;;7.30;4.83;;;;;;;-143.84;67.80;45098.56;5132221;27;20441;-61
2023/09/01 05:10:55;;;;;;;7.07;5.00;;;;;;;-143.84;67.24;45092.88;5132223;27;20499;-61
2023/09/01 05:13:22;;;;;;;6.83;5.13;;;;;;;-143.84;66.18;45073.81;5131502;27;20891;-61
2023/09/01 05:15:49;;;;;;;7.63;4.47;;;;;;;-143.84;66.01;45085.25;5132571;27;20442;-61
2023/09/01 05:18:17;;;;;;;8.67;5.03;;;;;;;-143.84;65.25;45089.06;5132582;27;20469;-61
2023/09/01 05:20:49;;;;;;;6.00;5.33;;;;;;;-143.84;64.48;45054.78;5132407;27;20442;-60
2023/09/01 05:23:16;;;;;;;5.83;4.80;;;;;;;-143.84;64.74;45090.97;5132262;27;20491;-61
2023/09/01 05:25:43;;;;;;;6.17;4.73;;;;;;;-143.84;65.66;45089.06;5132276;27;20569;-61
2023/09/01 05:28:10;;;;;;;9.20;5.20;;;;;;;-143.84;65.58;45081.44;5132558;27;20422;-61
2023/09/01 05:30:38;;;;;;;8.33;5.13;;;;;;;-143.84;65.16;45066.22;5132273;27;20527;-60
2023/09/01 05:33:05;;;;;;;6.37;4.53;;;;;;;-143.84;65.24;45081.44;5132223;27;20474;-61
2023/09/01 05:35:33;;;;;;;6.50;4.47;;;;;;;-143.84;66.04;45106.19;5112696;27;20446;-61
2023/09/01 05:38:01;;;;;;;5.33;4.13;;;;;;;-143.84;66.18;45098.56;5111461;28;20442;-61
2023/09/01 05:40:28;;;;;;;5.97;4.70;;;;;;;-143.84;65.85;45100.47;5111776;28;20438;-61
2023/09/01 05:42:55;;;;;;;4.93;4.53;;;;;;;-143.84;66.24;45092.88;5111593;28;20438;-61
2023/09/01 05:45:22;;;;;;;10.33;5.27;;;;;;;-143.84;65.02;45115.72;5111582;28;20446;-61
2023/09/01 05:47:50;;;;;;;6.33;4.70;;;;;;;-143.84;63.68;45083.34;5111695;28;20423;-61
2023/09/01 05:50:18;;;;;;;5.43;5.00;;;;;;;-143.84;62.45;45089.06;5111063;28;20932;-61
2023/09/01 05:52:45;;;;;;;5.43;4.40;;;;;;;-143.84;60.43;45068.13;5110718;28;20485;-61
2023/09/01 05:55:14;;;;;;;6.77;4.90;;;;;;;-143.84;58.03;45041.44;5111037;28;20449;-60
2023/09/01 05:57:42;;;;;;;6.50;4.30;;;;;;;-143.84;56.69;45033.84;5110616;28;20443;-61
2023/09/01 06:00:10;;;;;;;5.30;4.77;;;;;;;-143.84;55.46;45056.69;5110549;28;20435;-61
2023/09/01 06:02:37;;;;;;;5.53;4.37;;;;;;;-143.84;53.12;45031.94;5110435;28;20435;-60
2023/09/01 06:05:05;;;;;;;4.30;4.00;;;;;;;-143.84;50.70;45033.84;5110713;28;20431;-61
2023/09/01 06:07:32;;;;;;;9.50;4.80;;;;;;;-143.84;50.59;45030.03;5110681;28;20431;-60
2023/09/01 06:09:59;;;;;;;8.23;3.83;;;;;;;-143.84;49.65;45026.22;5110829;28;20431;-60
2023/09/01 06:12:28;;;;;;;4.87;4.37;;;;;;;-143.84;48.70;45043.34;5110887;28;20474;-60
2023/09/01 06:14:55;;;;;;;4.97;4.57;;;;;;;-143.84;48.09;45033.84;5110655;28;20439;-60
2023/09/01 06:17:22;;;;;;;4.90;4.23;;;;;;;-143.84;47.92;44999.56;5110732;28;20431;-60
2023/09/01 06:19:49;;;;;;;12.10;5.37;;;;;;;-143.84;46.41;45010.97;5110710;28;20432;-60
2023/09/01 06:22:16;;;;;;;4.70;4.20;;;;;;;-143.84;45.14;44995.75;5111341;28;20953;-60
2023/09/01 06:24:43;;;;;;;4.87;4.47;;;;;;;-143.84;44.16;45014.78;5111540;28;20431;-60
2023/09/01 06:27:10;;;;;;;7.10;4.13;;;;;;;-143.84;43.37;45030.03;5114611;28;20423;-60
2023/09/01 06:29:39;;;;;;;4.77;4.37;;;;;;;-143.84;42.45;44999.56;5114723;28;20453;-60
2023/09/01 06:32:11;;;;;;;4.93;4.43;;;;;;;-143.84;42.17;44997.66;5118072;27;20485;-60
2023/09/01 06:34:38;;;;;;;4.33;3.93;;;;;;;-143.84;42.15;44978.63;5118141;27;20443;-61
2023/09/01 06:37:06;;;;;;;4.00;3.70;;;;;;;-143.84;42.22;44991.94;5114848;28;20431;-61
2023/09/01 06:39:33;;;;;;;4.47;4.00;;;;;;;-143.84;40.72;44976.72;5114503;28;20443;-60
2023/09/01 06:42:00;;;;;;;10.17;3.90;;;;;;;-143.84;40.19;44967.19;5114840;28;20928;-61
2023/09/01 06:44:27;;;;;;;7.00;4.20;;;;;;;-143.84;39.86;44961.47;5114702;27;20511;-60
2023/09/01 06:46:56;;;;;;;4.37;3.93;;;;;;;-143.84;40.09;44967.19;5114533;28;20812;-60
2023/09/01 06:49:23;;;;;;;10.23;4.60;;;;;;;-143.84;39.42;44971.00;5114336;27;20439;-60
2023/09/01 06:51:50;;;;;;;3.60;3.30;;;;;;;-143.84;39.29;44967.19;5114290;27;20474;-61
2023/09/01 06:54:17;;;;;;;16.63;3.80;;;;;;;-143.84;39.49;44957.66;5113939;28;20491;-60
2023/09/01 06:56:44;;;;;;;5.03;3.40;;;;;;;-143.84;38.81;44978.63;5113975;28;20442;-60
2023/09/01 06:59:11;;;;;;;4.30;3.63;;;;;;;-143.84;38.65;44965.28;5113876;28;20488;-60
2023/09/01 07:01:38;;;;;;;5.80;3.20;;;;;;;-143.84;37.94;44965.28;5113891;28;20467;-60
2023/09/01 07:04:07;;;;;;;7.87;3.40;;;;;;;-143.84;38.44;44929.09;5112734;27;20427;-60
2023/09/01 07:06:34;;;;;;;5.17;3.23;;;;;;;-143.84;38.32;44934.81;5113757;28;20438;-60
2023/09/01 07:09:01;;;;;;;3.47;3.17;;;;;;;-143.84;37.81;44929.09;5113911;28;20423;-60
2023/09/01 07:11:29;;;;;;;4.90;3.60;;;;;;;-143.84;37.83;44942.44;5113849;28;20489;-60
2023/09/01 07:13:56;;;;;;;12.10;3.97;;;;;;;-143.84;37.71;44951.97;5113518;28;20457;-60
2023/09/01 07:16:23;;;;;;;3.30;3.10;;;;;;;-143.84;36.84;44911.97;5113999;28;20492;-60
2023/09/01 07:18:51;;;;;;;7.07;2.83;;;;;;;-143.84;36.37;44942.44;5113493;28;20431;-60
2023/09/01 07:21:19;;;;;;;8.60;3.27;;;;;;;-143.84;36.75;44911.97;5113624;28;20439;-60
2023/09/01 07:23:48;;;;;;;4.13;3.00;;;;;;;-143.84;37.12;44915.78;5113963;28;20920;-60
2023/09/01 07:26:16;;;;;;;3.57;3.27;;;;;;;-143.84;36.70;44913.88;5113550;28;20565;-60
2023/09/01 07:28:43;;;;;;;7.47;3.57;;;;;;;-143.84;36.58;44894.84;5113809;28;20431;-60
2023/09/01 07:31:12;;;;;;;5.60;3.47;;;;;;;-143.84;36.01;44929.09;5113260;28;20431;-60
2023/09/01 07:33:41;;;;;;;3.50;3.30;;;;;;;-143.84;36.53;44927.19;5112992;28;20518;-60
2023/09/01 07:36:10;;;;;;;3.17;2.97;;;;;;;-143.84;36.94;44931.00;5113040;28;20475;-60
2023/09/01 07:38:38;;;;;;;3.73;3.43;;;;;;;-143.84;36.47;44923.41;5113268;28;20492;-60
2023/09/01 07:41:07;;;;;;;5.37;3.40;;;;;;;-143.84;37.00;44927.19;5113061;28;20917;-60
2023/09/01 07:43:36;;;;;;;4.73;3.53;;;;;;;-143.84;36.54;44923.41;5112890;28;20446;-60
2023/09/01 07:46:03;;;;;;;5.37;3.97;;;;;;;-143.84;37.11;44932.91;5113164;27;20514;-60
2023/09/01 07:48:30;;;;;;;4.33;3.90;;;;;;;-143.84;36.90;44929.09;5113159;28;20937;-60
2023/09/01 07:50:57;;;;;;;4.53;4.13;;;;;;;-143.84;37.41;44942.44;5113656;28;20945;-60
2023/09/01 07:53:24;;;;;;;9.20;4.77;;;;;;;-143.84;37.07;44963.38;5113210;28;21040;-60
2023/09/01 07:55:53;;;;;;;8.93;3.90;;;;;;;-143.84;37.84;44942.44;5125934;27;20450;-60
2023/09/01 07:58:20;;;;;;;4.13;3.70;;;;;;;-143.84;38.00;44929.09;5112057;28;20446;-60
2023/09/01 08:00:47;;;;;;;5.40;3.70;;;;;;;-143.84;38.24;44913.88;5112695;28;20434;-60
2023/09/01 08:03:14;;;;;;;4.37;4.03;;;;;;;-143.84;36.16;44938.63;5112591;28;20446;-60
2023/09/01 08:05:42;;;;;;;10.40;3.43;;;;;;;-143.84;36.64;44885.31;5112476;28;20810;-60
2023/09/01 08:08:12;;;;;;;3.90;3.20;;;;;;;-143.84;36.77;44904.34;5110941;28;20431;-60
2023/09/01 08:10:39;;;;;;;6.53;3.23;;;;;;;-143.84;36.21;44923.41;5111039;28;20488;-60
2023/09/01 08:13:08;;;;;;;5.90;3.70;;;;;;;-143.84;35.77;44896.75;5110880;28;20474;-60
2023/09/01 08:15:35;;;;;;;8.10;5.20;;;;;;;-143.84;36.13;44908.16;5110672;28;20447;-60
2023/09/01 08:18:02;;;;;;;5.50;3.40;;;;;;;-143.84;35.79;44910.06;5110926;28;20481;-60
2023/09/01 08:20:29;;;;;;;10.93;4.50;;;;;;;-143.84;35.90;44917.69;5110598;28;20439;-60
2023/09/01 08:22:57;;;;;;;3.20;3.00;;;;;;;-143.84;35.88;44892.94;5110507;28;20462;-60
2023/09/01 08:25:24;;;;;;;5.77;5.00;;;;;;;-143.84;35.59;44877.69;5110395;28;20490;-60
2023/09/01 08:27:51;;;;;;;4.93;4.53;;;;;;;-143.84;36.13;44868.19;5110457;28;20435;-60
2023/09/01 08:30:19;;;;;;;7.87;3.90;;;;;;;-143.84;35.28;44898.66;5110731;28;20932;-60
2023/09/01 08:32:47;;;;;;;4.40;3.67;;;;;;;-143.84;35.37;44917.69;5110371;28;20517;-60
2023/09/01 08:35:14;;;;;;;11.13;4.77;;;;;;;-143.84;35.51;44894.84;5110646;28;20506;-60
2023/09/01 08:37:41;;;;;;;12.80;4.10;;;;;;;-143.84;35.55;44925.31;5109662;27;20442;-59
2023/09/01 08:40:10;;;;;;;4.70;3.50;;;;;;;-143.84;36.01;44875.78;5130962;27;20457;-58
2023/09/01 08:42:45;;;;;;;4.73;3.20;;;;;;;-143.84;35.61;44881.50;5131812;27;20477;-58
2023/09/01 08:45:12;;;;;;;8.17;3.00;;;;;;;-143.84;34.57;44877.69;5131930;27;20430;-58
2023/09/01 08:47:45;;;;;;;3.97;3.77;;;;;;;-143.84;35.03;44906.25;5131029;27;20426;-59
2023/09/01 08:50:12;;;;;;;4.00;3.50;;;;;;;-143.84;34.92;44911.97;5131177;27;21299;-59
2023/09/01 08:52:42;;;;;;;3.50;3.20;;;;;;;-143.84;35.32;44885.31;5131343;27;20465;-58
2023/09/01 08:55:10;;;;;;;8.00;4.57;;;;;;;-143.84;35.49;44871.97;5131855;27;20442;-59
2023/09/01 08:57:38;;;;;;;3.93;3.63;;;;;;;-143.84;35.11;44898.66;5131697;27;20469;-58
2023/09/01 09:00:08;;;;;;;5.43;4.60;;;;;;;-143.84;34.54;44894.84;5131006;27;20525;-58
2023/09/01 09:02:35;;;;;;;4.80;4.27;;;;;;;-143.84;34.70;44883.41;5130490;27;20434;-58
2023/09/01 09:05:06;;;;;;;4.83;3.60;;;;;;;-143.84;34.76;44873.88;5130706;27;20525;-58
2023/09/01 09:07:33;;;;;;;6.90;3.73;;;;;;;-143.84;34.51;44887.22;5130840;27;20447;-58
2023/09/01 09:10:03;;;;;;;8.53;4.00;;;;;;;-143.84;34.39;44856.75;5131305;27;20418;-58
2023/09/01 09:12:36;;;;;;;6.17;3.90;;;;;;;-143.84;34.42;44864.38;5130906;27;20473;-59
2023/09/01 09:15:05;;;;;;;3.80;3.50;;;;;;;-143.84;34.48;44862.47;5130874;27;20445;-58
2023/09/01 09:17:44;;;;;;;4.83;4.43;;;;;;;-143.84;34.87;44849.13;5130563;27;20529;-59
2023/09/01 09:20:14;;;;;;;3.50;3.20;;;;;;;-143.84;34.39;44887.22;5130926;27;20900;-59
2023/09/01 09:22:51;;;;;;;3.37;3.07;;;;;;;-143.84;33.61;44862.47;5131140;27;20798;-59
2023/09/01 09:25:25;;;;;;;7.00;3.57;;;;;;;-143.84;33.61;44873.88;5131102;27;20903;-59
2023/09/01 09:27:53;;;;;;;3.97;3.60;;;;;;;-143.84;33.52;44820.56;5130760;27;20487;-59
2023/09/01 09:30:20;;;;;;;3.97;3.67;;;;;;;-143.84;33.40;44843.44;5130560;27;20445;-59
2023/09/01 09:32:48;;;;;;;3.93;3.40;;;;;;;-143.84;33.37;44835.81;5130542;27;20465;-58
2023/09/01 09:35:19;;;;;;;4.53;4.13;;;;;;;-143.84;33.43;44866.28;5130639;27;20454;-59
2023/09/01 09:37:57;;;;;;;6.83;3.83;;;;;;;-143.84;34.00;44864.38;5130689;27;20491;-58
2023/09/01 09:40:24;;;;;;;4.73;3.90;;;;;;;-143.84;33.49;44860.56;5130397;27;20434;-59
2023/09/01 09:42:51;;;;;;;4.03;3.63;;;;;;;-143.84;32.44;44832.00;5130613;27;21001;-59
2023/09/01 09:45:26;;;;;;;4.17;3.77;;;;;;;-143.84;32.74;44835.81;5130223;27;20438;-59
2023/09/01 09:47:54;;;;;;;6.73;4.20;;;;;;;-143.84;32.60;44854.84;5130364;27;20457;-59
2023/09/01 09:50:24;;;;;;;3.80;3.47;;;;;;;-143.84;32.75;44833.91;5130515;27;20437;-59
2023/09/01 09:52:58;;;;;;;7.73;3.50;;;;;;;-143.84;32.85;44833.91;5130320;27;20478;-59
2023/09/01 09:55:27;;;;;;;4.07;3.70;;;;;;;-143.84;32.69;44866.28;5130488;27;20440;-58
2023/09/01 09:58:03;;;;;;;4.13;3.80;;;;;;;-143.84;32.92;44809.16;5130304;27;20438;-58
2023/09/01 10:00:32;;;;;;;7.07;2.83;;;;;;;-143.84;32.21;44856.75;5129014;27;21238;-58
2023/09/01 10:03:03;;;;;;;4.33;3.20;;;;;;;-143.84;33.23;44843.44;5130505;27;20513;-58
2023/09/01 10:05:33;;;;;;;7.13;3.90;;;;;;;-143.84;33.14;44832.00;5130455;27;20427;-58
2023/09/01 10:08:04;;;;;;;6.17;3.40;;;;;;;-143.84;33.20;44862.47;5130122;27;20450;-58
2023/09/01 10:10:33;;;;;;;3.30;3.10;;;;;;;-143.84;32.12;44843.44;5113240;28;20443;-58
2023/09/01 10:13:04;;;;;;;3.33;3.10;;;;;;;-143.84;31.64;44822.47;5109698;28;21279;-58
2023/09/01 10:15:32;;;;;;;3.60;3.30;;;;;;;-143.84;32.24;44830.09;5109472;28;20439;-58
2023/09/01 10:18:02;;;;;;;3.97;3.40;;;;;;;-143.84;32.43;44854.84;5110967;28;20873;-58
2023/09/01 10:20:30;;;;;;;3.83;3.53;;;;;;;-143.84;32.08;44835.81;5109756;28;20463;-58
2023/09/01 10:22:59;;;;;;;3.77;3.47;;;;;;;-143.84;32.05;44837.72;5109819;28;20451;-58
2023/09/01 10:25:26;;;;;;;3.90;3.60;;;;;;;-143.84;32.00;44822.47;5129392;28;20477;-59
2023/09/01 10:28:08;;;;;;;5.93;4.30;;;;;;;-143.84;31.80;44786.31;5130041;27;20494;-58
2023/09/01 10:30:36;;;;;;;4.60;3.40;;;;;;;-143.84;31.61;44847.22;5129529;27;20553;-58
2023/09/01 10:33:07;;;;;;;3.37;3.07;;;;;;;-143.84;31.05;44828.19;5130073;27;20481;-58
2023/09/01 10:35:44;;;;;;;4.30;4.00;;;;;;;-143.84;32.37;44792.00;5130107;27;20439;-58
2023/09/01 10:38:18;;;;;;;7.03;3.80;;;;;;;-143.84;30.15;44793.91;5130027;27;20441;-58
2023/09/01 10:40:48;;;;;;;4.23;3.80;;;;;;;-143.84;31.35;44809.16;5129987;27;20434;-58
2023/09/01 10:43:48;;;;;;;3.87;3.50;;;;;;;-143.84;31.76;44826.28;5130523;27;20438;-58
2023/09/01 10:46:26;;;;;;;6.90;3.77;;;;;;;-143.84;31.83;44822.47;5129566;27;20950;-58
2023/09/01 10:48:54;;;;;;;13.07;4.60;;;;;;;-143.84;32.24;44830.09;5130063;27;20999;-58
2023/09/01 10:51:22;;;;;;;5.20;4.00;;;;;;;-143.84;30.85;44809.16;5129766;27;20430;-58
2023/09/01 10:53:54;;;;;;;4.00;3.60;;;;;;;-143.84;32.60;44828.19;5129555;27;20979;-58
2023/09/01 10:56:21;;;;;;;5.57;3.83;;;;;;;-143.84;32.69;44824.38;5129526;27;20442;-58
2023/09/01 10:58:49;;;;;;;4.37;3.27;;;;;;;-143.84;33.20;44866.28;5129931;27;20453;-58
2023/09/01 11:01:31;;;;;;;9.53;4.63;;;;;;;-143.84;33.01;44864.38;5129164;27;20438;-58
2023/09/01 11:04:30;;;;;;;3.77;3.57;;;;;;;-143.84;32.28;44862.47;5129758;27;20430;-58
2023/09/01 11:07:06;;;;;;;12.30;4.23;;;;;;;-143.84;32.43;44866.28;5129536;27;20956;-57
2023/09/01 11:09:52;;;;;;;20.90;4.77;;;;;;;-143.84;33.16;44866.28;5129613;27;20558;-58
2023/09/01 11:12:19;;;;;;;3.57;3.27;;;;;;;-143.84;32.79;44892.94;5131883;27;20529;-58
2023/09/01 11:14:57;;;;;;;5.43;4.30;;;;;;;-143.84;32.91;44896.75;5131070;27;20545;-58
2023/09/01 11:17:37;;;;;;;4.23;3.93;;;;;;;-143.84;33.74;44868.19;5132891;27;20442;-58
2023/09/01 11:20:06;;;;;;;4.40;4.00;;;;;;;-143.84;35.09;44854.84;5133020;27;20947;-58
2023/09/01 11:22:33;;;;;;;5.30;4.17;;;;;;;-143.84;35.62;44898.66;5132984;27;20510;-58
2023/09/01 11:25:02;;;;;;;11.90;4.20;;;;;;;-143.84;34.13;44902.44;5133005;27;20495;-59